createdAt,value
2017-01-03T00:01:07.087Z,0.63
2017-01-03T00:02:17.821Z,0.61
2017-01-03T00:03:28.547Z,0.66
2017-01-03T00:04:39.264Z,0.55
2017-01-03T00:05:49.989Z,0.71
2017-01-03T00:07:00.709Z,0.68
2017-01-03T00:08:11.410Z,0.67
2017-01-03T00:09:22.109Z,0.7
2017-01-03T00:10:32.803Z,0.66
2017-01-03T00:11:43.540Z,0.71
2017-01-03T00:12:54.262Z,0.71
2017-01-03T00:14:05.008Z,0.58
2017-01-03T00:15:15.731Z,0.66
2017-01-03T00:16:26.477Z,0.66
2017-01-03T00:17:37.199Z,0.67
2017-01-03T00:18:47.899Z,0.71
2017-01-03T00:19:58.621Z,0.64
2017-01-03T00:21:09.334Z,0.64
2017-01-03T00:22:20.062Z,0.64
2017-01-03T00:23:30.789Z,0.59
2017-01-03T00:24:41.508Z,0.67
2017-01-03T00:25:52.271Z,0.68
2017-01-03T00:27:02.996Z,0.68
2017-01-03T00:28:13.717Z,0.71
2017-01-03T00:29:24.464Z,0.76
2017-01-03T00:30:35.201Z,0.73
2017-01-03T00:31:45.926Z,0.76
2017-01-03T00:32:56.626Z,0.7
2017-01-03T00:34:07.343Z,0.7
2017-01-03T00:35:18.089Z,0.76
2017-01-03T00:36:28.843Z,0.76
2017-01-03T00:37:39.554Z,0.76
2017-01-03T00:38:50.302Z,0.71
2017-01-03T00:40:01.023Z,0.76
2017-01-03T00:41:11.719Z,0.74
2017-01-03T00:42:22.449Z,0.81
2017-01-03T00:43:33.168Z,0.81
2017-01-03T00:44:43.879Z,0.78
2017-01-03T00:45:54.612Z,0.84
2017-01-03T00:47:05.350Z,0.78
2017-01-03T00:48:16.074Z,0.73
2017-01-03T00:49:26.796Z,0.88
2017-01-03T00:50:37.495Z,0.89
2017-01-03T00:51:48.238Z,0.86
2017-01-03T00:52:58.951Z,0.78
2017-01-03T00:54:09.680Z,0.85
2017-01-03T00:55:20.401Z,0.86
2017-01-03T00:56:31.143Z,0.82
2017-01-03T00:57:41.901Z,0.95
2017-01-03T00:58:52.619Z,0.89
2017-01-03T01:00:03.335Z,0.86
2017-01-03T01:01:14.049Z,0.96
2017-01-03T01:02:24.802Z,0.88
2017-01-03T01:03:35.554Z,0.88
2017-01-03T01:04:46.286Z,1.03
2017-01-03T01:05:56.995Z,1.04
2017-01-03T01:07:07.728Z,0.94
2017-01-03T01:08:18.448Z,0.96
2017-01-03T01:09:29.196Z,0.96
2017-01-03T01:10:39.924Z,0.96
2017-01-03T01:11:50.638Z,0.94
2017-01-03T01:13:01.385Z,0.94
2017-01-03T01:14:12.116Z,0.95
2017-01-03T01:15:22.850Z,0.92
2017-01-03T01:16:33.574Z,1.03
2017-01-03T01:17:44.317Z,0.95
2017-01-03T01:18:55.047Z,0.89
2017-01-03T01:20:05.763Z,0.99
2017-01-03T01:21:16.481Z,0.99
2017-01-03T01:22:27.227Z,1.03
2017-01-03T01:23:37.923Z,1.02
2017-01-03T01:24:48.627Z,1.07
2017-01-03T01:25:59.324Z,1.04
2017-01-03T01:27:10.039Z,1.04
2017-01-03T01:28:20.785Z,1.06
2017-01-03T01:29:31.510Z,1.03
2017-01-03T01:30:42.203Z,1.03
2017-01-03T01:31:52.906Z,1.06
2017-01-03T01:33:03.616Z,1.09
2017-01-03T01:34:14.373Z,0.96
2017-01-03T01:35:25.096Z,1.07
2017-01-03T01:36:35.831Z,1.16
2017-01-03T01:37:46.535Z,1.12
2017-01-03T01:38:57.254Z,1.18
2017-01-03T01:40:07.977Z,1.16
2017-01-03T01:41:18.690Z,1.13
2017-01-03T01:42:29.396Z,1.14
2017-01-03T01:43:40.158Z,1.18
2017-01-03T01:44:50.903Z,1.2
2017-01-03T01:46:01.628Z,1.21
2017-01-03T01:47:12.346Z,1.2
2017-01-03T01:48:23.099Z,1.18
2017-01-03T01:49:33.834Z,1.22
2017-01-03T01:50:44.566Z,1.09
2017-01-03T01:51:55.286Z,1.13
2017-01-03T01:53:05.982Z,1.12
2017-01-03T01:54:16.721Z,1.24
2017-01-03T01:55:27.474Z,1.14
2017-01-03T01:56:38.219Z,1.12
2017-01-03T01:57:48.941Z,1.32
2017-01-03T01:58:59.680Z,1.31
2017-01-03T02:00:10.372Z,1.22
2017-01-03T02:01:21.122Z,1.28
2017-01-03T02:02:31.846Z,1.3
2017-01-03T02:03:42.566Z,1.24
2017-01-03T02:04:53.285Z,1.25
2017-01-03T02:06:04.009Z,1.27
2017-01-03T02:07:14.757Z,1.25
2017-01-03T02:08:25.477Z,1.25
2017-01-03T02:09:36.194Z,1.27
2017-01-03T02:10:46.940Z,1.22
2017-01-03T02:11:57.657Z,1.3
2017-01-03T02:13:08.369Z,1.25
2017-01-03T02:14:19.124Z,1.24
2017-01-03T02:15:29.849Z,1.34
2017-01-03T02:16:40.574Z,1.25
2017-01-03T02:17:51.276Z,1.3
2017-01-03T02:19:01.991Z,1.36
2017-01-03T02:20:12.704Z,1.39
2017-01-03T02:21:23.441Z,1.34
2017-01-03T02:22:34.184Z,1.4
2017-01-03T02:23:44.899Z,1.48
2017-01-03T02:24:55.613Z,1.36
2017-01-03T02:26:06.335Z,1.45
2017-01-03T02:27:17.056Z,1.48
2017-01-03T02:28:27.809Z,1.49
2017-01-03T02:29:38.549Z,1.43
2017-01-03T02:30:49.294Z,1.49
2017-01-03T02:32:00.048Z,1.56
2017-01-03T02:33:10.789Z,1.5
2017-01-03T02:34:21.506Z,1.53
2017-01-03T02:35:32.253Z,1.66
2017-01-03T02:36:42.998Z,1.56
2017-01-03T02:37:53.731Z,1.66
2017-01-03T02:39:04.476Z,1.5
2017-01-03T02:40:15.195Z,1.63
2017-01-03T02:41:25.898Z,1.64
2017-01-03T02:42:36.620Z,1.56
2017-01-03T02:43:47.383Z,1.61
2017-01-03T02:44:58.106Z,1.57
2017-01-03T02:46:08.825Z,1.64
2017-01-03T02:47:19.549Z,1.64
2017-01-03T02:48:30.270Z,1.67
2017-01-03T02:49:41.008Z,1.71
2017-01-03T02:50:51.734Z,1.66
2017-01-03T02:52:02.472Z,1.7
2017-01-03T02:53:13.206Z,1.67
2017-01-03T02:54:23.923Z,1.68
2017-01-03T02:55:34.671Z,1.67
2017-01-03T02:56:45.393Z,1.68
2017-01-03T02:57:56.130Z,1.71
2017-01-03T02:59:06.877Z,1.76
2017-01-03T03:00:17.624Z,1.66
2017-01-03T03:01:28.366Z,1.68
2017-01-03T03:02:39.089Z,1.82
2017-01-03T03:03:49.815Z,1.7
2017-01-03T03:05:00.516Z,1.74
2017-01-03T03:06:11.257Z,1.75
2017-01-03T03:07:21.971Z,1.79
2017-01-03T03:08:32.691Z,1.79
2017-01-03T03:09:43.396Z,1.78
2017-01-03T03:10:54.109Z,1.81
2017-01-03T03:12:04.814Z,1.75
2017-01-03T03:13:15.513Z,1.84
2017-01-03T03:14:26.229Z,1.84
2017-01-03T03:15:36.971Z,1.85
2017-01-03T03:16:47.674Z,1.85
2017-01-03T03:17:58.410Z,1.89
2017-01-03T03:19:09.144Z,1.85
2017-01-03T03:20:19.843Z,1.82
2017-01-03T03:21:30.575Z,1.93
2017-01-03T03:22:41.294Z,1.89
2017-01-03T03:23:52.026Z,1.97
2017-01-03T03:25:02.747Z,1.97
2017-01-03T03:26:13.457Z,1.82
2017-01-03T03:27:24.190Z,1.98
2017-01-03T03:28:34.925Z,1.93
2017-01-03T03:29:45.624Z,1.89
2017-01-03T03:30:56.350Z,2
2017-01-03T03:32:07.067Z,1.88
2017-01-03T03:33:17.811Z,1.92
2017-01-03T03:34:28.530Z,1.88
2017-01-03T03:35:39.267Z,2.03
2017-01-03T03:36:50.004Z,2.07
2017-01-03T03:38:00.718Z,1.97
2017-01-03T03:39:11.465Z,1.95
2017-01-03T03:40:22.197Z,2.07
2017-01-03T03:41:32.889Z,2.04
2017-01-03T03:42:43.589Z,2.03
2017-01-03T03:43:54.300Z,2.03
2017-01-03T03:45:05.029Z,2.01
2017-01-03T03:46:15.765Z,1.92
2017-01-03T03:47:26.489Z,2.01
2017-01-03T03:48:37.232Z,1.97
2017-01-03T03:49:47.953Z,2.03
2017-01-03T03:50:58.677Z,2.04
2017-01-03T03:52:09.407Z,2.01
2017-01-03T03:53:20.128Z,2.05
2017-01-03T03:54:30.865Z,2.01
2017-01-03T03:55:41.595Z,2.03
2017-01-03T03:56:52.307Z,2
2017-01-03T03:58:03.028Z,1.97
2017-01-03T03:59:13.750Z,1.95
2017-01-03T04:00:24.504Z,2.08
2017-01-03T04:01:35.245Z,2.08
2017-01-03T04:02:45.958Z,1.98
2017-01-03T04:03:56.705Z,2.05
2017-01-03T04:05:07.426Z,2.03
2017-01-03T04:06:18.154Z,2.08
2017-01-03T04:07:28.922Z,2.05
2017-01-03T04:08:39.653Z,2.07
2017-01-03T04:09:50.388Z,2.01
2017-01-03T04:11:01.118Z,2.1
2017-01-03T04:12:11.827Z,2.08
2017-01-03T04:13:22.533Z,2.1
2017-01-03T04:14:33.255Z,2.1
2017-01-03T04:15:43.979Z,2.08
2017-01-03T04:16:54.697Z,2.12
2017-01-03T04:18:05.436Z,2.16
2017-01-03T04:19:16.160Z,2.07
2017-01-03T04:20:26.886Z,2.05
2017-01-03T04:21:37.977Z,2.15
2017-01-03T04:22:48.716Z,2.1
2017-01-03T04:23:59.465Z,2.08
2017-01-03T04:25:10.187Z,2.08
2017-01-03T04:26:20.933Z,2.08
2017-01-03T04:27:31.676Z,2.18
2017-01-03T04:28:42.408Z,2.15
2017-01-03T04:29:53.178Z,2.12
2017-01-03T04:31:03.917Z,2.12
2017-01-03T04:32:15.034Z,2.1
2017-01-03T04:33:25.755Z,2.19
2017-01-03T04:34:36.490Z,2.14
2017-01-03T04:35:47.222Z,2.23
2017-01-03T04:36:57.954Z,2.19
2017-01-03T04:38:08.717Z,2.12
2017-01-03T04:39:19.435Z,2.19
2017-01-03T04:40:30.138Z,2.19
2017-01-03T04:41:40.852Z,2.21
2017-01-03T04:42:51.580Z,2.22
2017-01-03T04:44:02.309Z,2.18
2017-01-03T04:45:13.040Z,2.18
2017-01-03T04:46:23.764Z,2.15
2017-01-03T04:47:34.486Z,2.19
2017-01-03T04:48:45.229Z,2.16
2017-01-03T04:49:55.974Z,2.15
2017-01-03T04:51:06.680Z,2.12
2017-01-03T04:52:17.423Z,2.19
2017-01-03T04:53:28.172Z,2.18
2017-01-03T04:54:38.919Z,2.19
2017-01-03T04:55:50.012Z,2.16
2017-01-03T04:57:00.724Z,2.1
2017-01-03T04:58:11.449Z,2.23
2017-01-03T04:59:22.178Z,2.1
2017-01-03T05:00:32.912Z,2.25
2017-01-03T05:01:44.020Z,2.21
2017-01-03T05:02:54.740Z,2.19
2017-01-03T05:04:05.438Z,2.21
2017-01-03T05:05:16.154Z,2.18
2017-01-03T05:06:26.870Z,2.16
2017-01-03T05:07:37.588Z,2.19
2017-01-03T05:08:48.284Z,2.15
2017-01-03T05:09:58.992Z,2.19
2017-01-03T05:11:09.686Z,2.22
2017-01-03T05:12:20.815Z,2.25
2017-01-03T05:13:31.555Z,2.22
2017-01-03T05:14:42.289Z,2.23
2017-01-03T05:15:53.038Z,2.25
2017-01-03T05:17:03.759Z,2.21
2017-01-03T05:18:14.460Z,2.28
2017-01-03T05:19:25.147Z,2.23
2017-01-03T05:20:35.878Z,2.22
2017-01-03T05:21:46.592Z,2.25
2017-01-03T05:22:57.297Z,2.21
2017-01-03T05:24:08.032Z,2.23
2017-01-03T05:25:18.762Z,2.23
2017-01-03T05:26:29.500Z,2.26
2017-01-03T05:27:40.218Z,2.21
2017-01-03T05:28:50.928Z,2.26
2017-01-03T05:30:01.644Z,2.22
2017-01-03T05:31:12.343Z,2.25
2017-01-03T05:32:23.089Z,2.23
2017-01-03T05:33:33.832Z,2.26
2017-01-03T05:34:44.568Z,2.23
2017-01-03T05:35:55.314Z,2.18
2017-01-03T05:37:06.046Z,2.25
2017-01-03T05:38:17.144Z,2.21
2017-01-03T05:39:27.878Z,2.18
2017-01-03T05:40:38.602Z,2.32
2017-01-03T05:41:49.326Z,2.25
2017-01-03T05:43:00.051Z,2.28
2017-01-03T05:44:10.768Z,2.36
2017-01-03T05:45:21.497Z,2.3
2017-01-03T05:46:32.236Z,2.3
2017-01-03T05:47:42.938Z,2.32
2017-01-03T05:48:53.673Z,2.28
2017-01-03T05:50:04.381Z,2.28
2017-01-03T05:51:15.111Z,2.34
2017-01-03T05:52:25.844Z,2.33
2017-01-03T05:53:36.564Z,2.34
2017-01-03T05:54:47.307Z,2.3
2017-01-03T05:55:58.008Z,2.28
2017-01-03T05:57:08.752Z,2.39
2017-01-03T05:58:19.491Z,2.33
2017-01-03T05:59:30.208Z,2.41
2017-01-03T06:00:40.937Z,2.28
2017-01-03T06:01:51.650Z,2.26
2017-01-03T06:03:02.382Z,2.44
2017-01-03T06:04:13.071Z,2.41
2017-01-03T06:05:23.800Z,2.43
2017-01-03T06:06:34.537Z,2.36
2017-01-03T06:07:45.258Z,2.36
2017-01-03T06:08:55.987Z,2.32
2017-01-03T06:10:06.730Z,2.37
2017-01-03T06:11:17.450Z,2.34
2017-01-03T06:12:28.175Z,2.44
2017-01-03T06:13:38.896Z,2.37
2017-01-03T06:14:49.605Z,2.39
2017-01-03T06:16:00.339Z,2.39
2017-01-03T06:17:11.076Z,2.37
2017-01-03T06:18:21.768Z,2.41
2017-01-03T06:19:32.490Z,2.44
2017-01-03T06:20:43.214Z,2.41
2017-01-03T06:21:53.961Z,2.43
2017-01-03T06:23:04.731Z,2.43
2017-01-03T06:24:15.448Z,2.34
2017-01-03T06:25:26.206Z,2.34
2017-01-03T06:26:36.944Z,2.44
2017-01-03T06:27:47.697Z,2.39
2017-01-03T06:28:58.436Z,2.41
2017-01-03T06:30:09.541Z,2.37
2017-01-03T06:31:20.274Z,2.37
2017-01-03T06:32:30.999Z,2.41
2017-01-03T06:33:41.728Z,2.46
2017-01-03T06:34:52.467Z,2.47
2017-01-03T06:36:03.194Z,2.54
2017-01-03T06:37:13.917Z,2.54
2017-01-03T06:38:24.636Z,2.54
2017-01-03T06:39:35.330Z,2.57
2017-01-03T06:40:46.042Z,2.51
2017-01-03T06:41:56.805Z,2.54
2017-01-03T06:43:07.510Z,2.5
2017-01-03T06:44:18.238Z,2.47
2017-01-03T06:45:28.935Z,2.52
2017-01-03T06:46:39.638Z,2.54
2017-01-03T06:47:50.372Z,2.47
2017-01-03T06:49:01.118Z,2.55
2017-01-03T06:50:11.861Z,2.55
2017-01-03T06:51:22.581Z,2.5
2017-01-03T06:52:33.328Z,2.47
2017-01-03T06:53:44.049Z,2.52
2017-01-03T06:54:54.748Z,2.5
2017-01-03T06:56:05.498Z,2.55
2017-01-03T06:57:16.219Z,2.5
2017-01-03T06:58:26.919Z,2.52
2017-01-03T06:59:37.643Z,2.43
2017-01-03T07:00:48.406Z,2.55
2017-01-03T07:01:59.131Z,2.47
2017-01-03T07:03:09.870Z,2.51
2017-01-03T07:04:20.613Z,2.5
2017-01-03T07:05:31.333Z,2.5
2017-01-03T07:06:42.087Z,2.47
2017-01-03T07:07:52.808Z,2.52
2017-01-03T07:09:03.521Z,2.5
2017-01-03T07:10:14.267Z,2.47
2017-01-03T07:11:24.999Z,2.55
2017-01-03T07:12:35.738Z,2.46
2017-01-03T07:13:46.459Z,2.54
2017-01-03T07:14:57.184Z,2.46
2017-01-03T07:16:07.910Z,2.55
2017-01-03T07:17:18.647Z,2.58
2017-01-03T07:18:29.390Z,2.5
2017-01-03T07:19:40.114Z,2.54
2017-01-03T07:20:50.842Z,2.5
2017-01-03T07:22:01.553Z,2.54
2017-01-03T07:23:12.286Z,2.64
2017-01-03T07:24:23.005Z,2.52
2017-01-03T07:25:33.744Z,2.64
2017-01-03T07:26:44.469Z,2.62
2017-01-03T07:27:55.187Z,2.61
2017-01-03T07:29:05.891Z,2.64
2017-01-03T07:30:16.632Z,2.58
2017-01-03T07:31:27.363Z,2.61
2017-01-03T07:32:38.079Z,2.64
2017-01-03T07:33:48.799Z,2.69
2017-01-03T07:34:59.534Z,2.69
2017-01-03T07:36:10.255Z,2.62
2017-01-03T07:37:20.978Z,2.73
2017-01-03T07:38:31.721Z,2.68
2017-01-03T07:39:42.456Z,2.72
2017-01-03T07:40:53.175Z,2.75
2017-01-03T07:42:03.913Z,2.72
2017-01-03T07:43:14.656Z,2.73
2017-01-03T07:44:25.384Z,2.72
2017-01-03T07:45:36.102Z,2.69
2017-01-03T07:46:46.808Z,2.72
2017-01-03T07:47:57.576Z,2.75
2017-01-03T07:49:08.289Z,2.73
2017-01-03T07:50:19.016Z,2.75
2017-01-03T07:51:29.765Z,2.75
2017-01-03T07:52:40.536Z,2.79
2017-01-03T07:53:51.295Z,2.79
2017-01-03T07:55:02.052Z,2.76
2017-01-03T07:56:13.162Z,2.72
2017-01-03T07:57:23.898Z,2.79
2017-01-03T07:58:34.638Z,2.77
2017-01-03T07:59:45.325Z,2.76
2017-01-03T08:00:56.056Z,2.77
2017-01-03T08:02:06.802Z,2.75
2017-01-03T08:03:17.520Z,2.77
2017-01-03T08:04:28.263Z,2.75
2017-01-03T08:05:39.009Z,2.75
2017-01-03T08:06:49.787Z,2.8
2017-01-03T08:08:00.504Z,2.72
2017-01-03T08:09:11.221Z,2.69
2017-01-03T08:10:21.964Z,2.73
2017-01-03T08:11:32.696Z,2.72
2017-01-03T08:12:43.435Z,2.72
2017-01-03T08:13:54.159Z,2.73
2017-01-03T08:15:04.901Z,2.69
2017-01-03T08:16:15.651Z,2.75
2017-01-03T08:17:26.380Z,2.76
2017-01-03T08:18:37.122Z,2.79
2017-01-03T08:19:47.845Z,2.83
2017-01-03T08:20:58.967Z,2.72
2017-01-03T08:22:09.677Z,2.8
2017-01-03T08:23:20.404Z,2.87
2017-01-03T08:24:31.141Z,2.87
2017-01-03T08:25:41.847Z,2.87
2017-01-03T08:26:52.558Z,2.87
2017-01-03T08:28:03.290Z,2.88
2017-01-03T08:29:14.033Z,2.85
2017-01-03T08:30:24.771Z,2.88
2017-01-03T08:31:35.492Z,2.87
2017-01-03T08:32:46.249Z,2.91
2017-01-03T08:33:56.967Z,2.94
2017-01-03T08:35:07.738Z,2.97
2017-01-03T08:36:18.451Z,2.98
2017-01-03T08:37:29.174Z,3
2017-01-03T08:38:39.902Z,2.97
2017-01-03T08:39:50.638Z,3.03
2017-01-03T08:41:01.388Z,2.93
2017-01-03T08:42:12.108Z,2.9
2017-01-03T08:43:22.855Z,2.97
2017-01-03T08:44:33.554Z,3
2017-01-03T08:45:44.276Z,3
2017-01-03T08:46:55.003Z,3
2017-01-03T08:48:05.742Z,2.93
2017-01-03T08:49:16.459Z,3.01
2017-01-03T08:50:27.202Z,2.94
2017-01-03T08:51:37.930Z,3
2017-01-03T08:52:48.651Z,2.95
2017-01-03T08:53:59.373Z,3.06
2017-01-03T08:55:10.139Z,3.01
2017-01-03T08:56:20.868Z,3.05
2017-01-03T08:57:31.640Z,3.09
2017-01-03T08:58:42.358Z,3
2017-01-03T08:59:53.098Z,3.05
2017-01-03T09:01:03.798Z,3.08
2017-01-03T09:02:14.538Z,3.01
2017-01-03T09:03:25.258Z,3.03
2017-01-03T09:04:36.006Z,3.06
2017-01-03T09:05:46.750Z,3.12
2017-01-03T09:06:57.475Z,3.05
2017-01-03T09:08:08.198Z,3.11
2017-01-03T09:09:18.887Z,3.15
2017-01-03T09:10:29.614Z,3.13
2017-01-03T09:11:40.335Z,3.06
2017-01-03T09:12:51.106Z,3.21
2017-01-03T09:14:01.823Z,3.15
2017-01-03T09:15:12.548Z,3.22
2017-01-03T09:16:23.311Z,3.11
2017-01-03T09:17:34.032Z,3.21
2017-01-03T09:18:44.760Z,3.18
2017-01-03T09:19:55.473Z,3.26
2017-01-03T09:21:06.226Z,3.18
2017-01-03T09:22:16.955Z,3.13
2017-01-03T09:23:27.698Z,3.15
2017-01-03T09:24:38.432Z,3.13
2017-01-03T09:25:49.139Z,3.19
2017-01-03T09:26:59.881Z,3.24
2017-01-03T09:28:10.619Z,3.29
2017-01-03T09:29:21.339Z,3.26
2017-01-03T09:30:32.064Z,3.19
2017-01-03T09:31:42.792Z,3.19
2017-01-03T09:32:53.506Z,3.27
2017-01-03T09:34:04.226Z,3.22
2017-01-03T09:35:14.971Z,3.22
2017-01-03T09:36:25.714Z,3.29
2017-01-03T09:37:36.439Z,3.3
2017-01-03T09:38:47.156Z,3.24
2017-01-03T09:39:57.880Z,3.18
2017-01-03T09:41:08.623Z,3.31
2017-01-03T09:42:19.355Z,3.27
2017-01-03T09:43:30.097Z,3.26
2017-01-03T09:44:40.792Z,3.31
2017-01-03T09:45:51.509Z,3.31
2017-01-03T09:47:02.252Z,3.3
2017-01-03T09:48:13.001Z,3.31
2017-01-03T09:49:23.747Z,3.3
2017-01-03T09:50:34.489Z,3.34
2017-01-03T09:51:45.212Z,3.24
2017-01-03T09:52:55.931Z,3.36
2017-01-03T09:54:06.660Z,3.3
2017-01-03T09:55:17.383Z,3.34
2017-01-03T09:56:28.068Z,3.34
2017-01-03T09:57:38.798Z,3.29
2017-01-03T09:58:49.917Z,3.3
2017-01-03T10:00:00.634Z,3.29
2017-01-03T10:01:11.353Z,3.3
2017-01-03T10:02:22.063Z,3.4
2017-01-03T10:03:32.795Z,3.24
2017-01-03T10:04:43.515Z,3.4
2017-01-03T10:05:54.286Z,3.36
2017-01-03T10:07:05.014Z,3.43
2017-01-03T10:08:15.731Z,3.34
2017-01-03T10:09:26.860Z,3.48
2017-01-03T10:10:37.598Z,3.36
2017-01-03T10:11:48.319Z,3.34
2017-01-03T10:12:59.040Z,3.37
2017-01-03T10:14:09.765Z,3.45
2017-01-03T10:15:20.492Z,3.45
2017-01-03T10:16:31.232Z,3.46
2017-01-03T10:17:41.973Z,3.43
2017-01-03T10:18:52.701Z,3.45
2017-01-03T10:20:03.423Z,3.37
2017-01-03T10:21:14.165Z,3.48
2017-01-03T10:22:24.904Z,3.43
2017-01-03T10:23:35.625Z,3.45
2017-01-03T10:24:46.349Z,3.46
2017-01-03T10:25:57.050Z,3.49
2017-01-03T10:27:07.762Z,3.43
2017-01-03T10:28:18.495Z,3.41
2017-01-03T10:29:29.240Z,3.37
2017-01-03T10:30:39.987Z,3.53
2017-01-03T10:31:50.721Z,3.48
2017-01-03T10:33:01.471Z,3.53
2017-01-03T10:34:12.217Z,3.46
2017-01-03T10:35:22.959Z,3.49
2017-01-03T10:36:33.688Z,3.48
2017-01-03T10:37:44.405Z,3.5
2017-01-03T10:38:55.150Z,3.59
2017-01-03T10:40:05.926Z,3.64
2017-01-03T10:41:16.643Z,3.66
2017-01-03T10:42:27.392Z,3.61
2017-01-03T10:43:38.096Z,3.67
2017-01-03T10:44:48.830Z,3.67
2017-01-03T10:45:59.559Z,3.63
2017-01-03T10:47:10.331Z,3.7
2017-01-03T10:48:21.065Z,3.74
2017-01-03T10:49:31.774Z,3.71
2017-01-03T10:50:42.518Z,3.77
2017-01-03T10:51:53.254Z,3.71
2017-01-03T10:53:03.999Z,3.68
2017-01-03T10:54:14.703Z,3.81
2017-01-03T10:55:25.424Z,3.76
2017-01-03T10:56:36.163Z,3.82
2017-01-03T10:57:46.892Z,3.84
2017-01-03T10:58:57.617Z,3.81
2017-01-03T11:00:08.363Z,3.82
2017-01-03T11:01:19.105Z,3.84
2017-01-03T11:02:29.819Z,3.88
2017-01-03T11:03:40.515Z,3.92
2017-01-03T11:04:51.243Z,3.94
2017-01-03T11:06:01.969Z,3.86
2017-01-03T11:07:12.707Z,3.86
2017-01-03T11:08:23.425Z,3.94
2017-01-03T11:09:34.170Z,3.86
2017-01-03T11:10:44.895Z,3.88
2017-01-03T11:11:55.613Z,3.89
2017-01-03T11:13:06.363Z,3.96
2017-01-03T11:14:17.105Z,3.89
2017-01-03T11:15:27.838Z,3.96
2017-01-03T11:16:38.575Z,3.89
2017-01-03T11:17:49.319Z,4.06
2017-01-03T11:19:00.068Z,3.95
2017-01-03T11:20:10.799Z,4.04
2017-01-03T11:21:21.539Z,3.99
2017-01-03T11:22:32.278Z,4.03
2017-01-03T11:23:42.982Z,4.04
2017-01-03T11:24:53.699Z,4.02
2017-01-03T11:26:04.420Z,4.07
2017-01-03T11:27:15.145Z,4.03
2017-01-03T11:28:25.867Z,4.04
2017-01-03T11:29:36.613Z,4.09
2017-01-03T11:30:47.358Z,4.1
2017-01-03T11:31:58.100Z,4.12
2017-01-03T11:33:08.871Z,4.07
2017-01-03T11:34:19.597Z,4.06
2017-01-03T11:35:30.297Z,4.14
2017-01-03T11:36:41.043Z,4.04
2017-01-03T11:37:51.755Z,4.1
2017-01-03T11:39:02.483Z,4.09
2017-01-03T11:40:13.179Z,4.1
2017-01-03T11:41:23.899Z,4.09
2017-01-03T11:42:34.619Z,4.06
2017-01-03T11:43:45.740Z,4.04
2017-01-03T11:44:56.454Z,4.07
2017-01-03T11:46:07.184Z,4.06
2017-01-03T11:47:17.925Z,4.03
2017-01-03T11:48:28.653Z,4.02
2017-01-03T11:49:39.391Z,4.07
2017-01-03T11:50:50.142Z,4
2017-01-03T11:52:00.884Z,4.09
2017-01-03T11:53:11.985Z,4.09
2017-01-03T11:54:22.725Z,4.03
2017-01-03T11:55:33.497Z,4.1
2017-01-03T11:56:44.221Z,4.06
2017-01-03T11:57:54.936Z,4.09
2017-01-03T11:59:05.657Z,4.13
2017-01-03T12:00:16.388Z,4.1
2017-01-03T12:01:27.128Z,4.12
2017-01-03T12:02:37.855Z,4.02
2017-01-03T12:03:48.579Z,4.13
2017-01-03T12:04:59.289Z,4.06
2017-01-03T12:06:10.013Z,4.1
2017-01-03T12:07:20.734Z,4.09
2017-01-03T12:08:31.476Z,4.07
2017-01-03T12:09:42.198Z,4.09
2017-01-03T12:10:53.309Z,4.09
2017-01-03T12:12:04.043Z,4.09
2017-01-03T12:13:14.745Z,4.04
2017-01-03T12:14:25.446Z,4.12
2017-01-03T12:15:36.181Z,4.09
2017-01-03T12:16:46.881Z,4.04
2017-01-03T12:17:57.598Z,4.1
2017-01-03T12:19:08.316Z,4.07
2017-01-03T12:20:19.073Z,4.07
2017-01-03T12:21:29.783Z,4.06
2017-01-03T12:22:40.541Z,4.06
2017-01-03T12:23:51.276Z,4
2017-01-03T12:25:02.025Z,4.1
2017-01-03T12:26:12.775Z,4.04
2017-01-03T12:27:23.501Z,4.07
2017-01-03T12:28:34.238Z,4.03
2017-01-03T12:29:44.981Z,4.02
2017-01-03T12:30:55.687Z,3.92
2017-01-03T12:32:06.426Z,3.95
2017-01-03T12:33:17.198Z,3.94
2017-01-03T12:34:27.903Z,3.89
2017-01-03T12:35:38.637Z,3.86
2017-01-03T12:36:49.346Z,3.95
2017-01-03T12:38:00.064Z,3.88
2017-01-03T12:39:10.786Z,3.91
2017-01-03T12:40:21.504Z,3.92
2017-01-03T12:41:32.203Z,3.89
2017-01-03T12:42:42.937Z,3.82
2017-01-03T12:43:53.659Z,3.81
2017-01-03T12:45:04.391Z,3.78
2017-01-03T12:46:15.139Z,3.77
2017-01-03T12:47:26.256Z,3.81
2017-01-03T12:48:36.981Z,3.82
2017-01-03T12:49:47.726Z,3.77
2017-01-03T12:50:58.463Z,3.71
2017-01-03T12:52:09.185Z,3.84
2017-01-03T12:53:19.932Z,3.71
2017-01-03T12:54:30.648Z,3.7
2017-01-03T12:55:41.371Z,3.76
2017-01-03T12:56:52.098Z,3.64
2017-01-03T12:58:02.823Z,3.66
2017-01-03T12:59:13.571Z,3.66
2017-01-03T13:00:24.313Z,3.66
2017-01-03T13:01:35.034Z,3.66
2017-01-03T13:02:45.782Z,3.64
2017-01-03T13:03:56.500Z,3.68
2017-01-03T13:05:07.212Z,3.63
2017-01-03T13:06:17.969Z,3.66
2017-01-03T13:07:28.709Z,3.58
2017-01-03T13:08:39.434Z,3.55
2017-01-03T13:09:50.161Z,3.59
2017-01-03T13:11:00.883Z,3.5
2017-01-03T13:12:11.672Z,3.52
2017-01-03T13:13:22.385Z,3.56
2017-01-03T13:14:33.113Z,3.52
2017-01-03T13:15:43.864Z,3.5
2017-01-03T13:16:54.626Z,3.49
2017-01-03T13:18:05.348Z,3.48
2017-01-03T13:19:16.092Z,3.59
2017-01-03T13:20:26.814Z,3.49
2017-01-03T13:21:37.536Z,3.52
2017-01-03T13:22:48.278Z,3.48
2017-01-03T13:23:59.028Z,3.53
2017-01-03T13:25:09.732Z,3.58
2017-01-03T13:26:20.470Z,3.55
2017-01-03T13:27:31.191Z,3.48
2017-01-03T13:28:41.945Z,3.52
2017-01-03T13:29:52.666Z,3.46
2017-01-03T13:31:03.388Z,3.49
2017-01-03T13:32:14.106Z,3.48
2017-01-03T13:33:24.846Z,3.46
2017-01-03T13:34:35.563Z,3.5
2017-01-03T13:35:46.320Z,3.53
2017-01-03T13:36:57.058Z,3.49
2017-01-03T13:38:07.780Z,3.5
2017-01-03T13:39:18.508Z,3.52
2017-01-03T13:40:29.219Z,3.48
2017-01-03T13:41:39.975Z,3.48
2017-01-03T13:42:50.711Z,3.49
2017-01-03T13:44:01.431Z,3.52
2017-01-03T13:45:12.186Z,3.49
2017-01-03T13:46:22.898Z,3.49
2017-01-03T13:47:33.623Z,3.53
2017-01-03T13:48:44.376Z,3.46
2017-01-03T13:49:55.125Z,3.5
2017-01-03T13:51:05.842Z,3.49
2017-01-03T13:52:16.614Z,3.49
2017-01-03T13:53:27.349Z,3.49
2017-01-03T13:54:38.079Z,3.49
2017-01-03T13:55:48.817Z,3.49
2017-01-03T13:56:59.516Z,3.5
2017-01-03T13:58:10.217Z,3.49
2017-01-03T13:59:20.983Z,3.5
2017-01-03T14:00:31.705Z,3.53
2017-01-03T14:01:42.425Z,3.49
2017-01-03T14:02:53.157Z,3.49
2017-01-03T14:04:03.892Z,3.56
2017-01-03T14:05:14.639Z,3.48
2017-01-03T14:06:25.342Z,3.49
2017-01-03T14:07:36.081Z,3.49
2017-01-03T14:08:46.807Z,3.48
2017-01-03T14:09:57.531Z,3.61
2017-01-03T14:11:08.272Z,3.53
2017-01-03T14:12:18.987Z,3.48
2017-01-03T14:13:29.711Z,3.52
2017-01-03T14:14:40.436Z,3.52
2017-01-03T14:15:51.156Z,3.59
2017-01-03T14:17:01.879Z,3.66
2017-01-03T14:18:12.604Z,3.5
2017-01-03T14:19:23.348Z,3.49
2017-01-03T14:20:34.067Z,3.46
2017-01-03T14:21:44.791Z,3.53
2017-01-03T14:22:55.511Z,3.56
2017-01-03T14:24:06.282Z,3.5
2017-01-03T14:25:17.000Z,3.61
2017-01-03T14:26:27.725Z,3.67
2017-01-03T14:27:38.439Z,3.59
2017-01-03T14:28:49.159Z,3.52
2017-01-03T14:29:59.877Z,3.61
2017-01-03T14:31:10.602Z,3.61
2017-01-03T14:32:21.330Z,3.61
2017-01-03T14:33:32.069Z,3.61
2017-01-03T14:34:42.814Z,3.63
2017-01-03T14:35:53.532Z,3.55
2017-01-03T14:37:04.283Z,3.63
2017-01-03T14:38:15.024Z,3.66
2017-01-03T14:39:25.785Z,3.64
2017-01-03T14:40:36.517Z,3.58
2017-01-03T14:41:47.270Z,3.56
2017-01-03T14:42:58.016Z,3.63
2017-01-03T14:44:08.729Z,3.53
2017-01-03T14:45:19.480Z,3.52
2017-01-03T14:46:30.200Z,3.63
2017-01-03T14:47:40.926Z,3.53
2017-01-03T14:48:51.666Z,3.48
2017-01-03T14:50:02.417Z,3.55
2017-01-03T14:51:13.117Z,3.58
2017-01-03T14:52:23.859Z,3.49
2017-01-03T14:53:34.601Z,3.58
2017-01-03T14:54:45.304Z,3.49
2017-01-03T14:55:55.989Z,3.55
2017-01-03T14:57:06.728Z,3.56
2017-01-03T14:58:17.443Z,3.48
2017-01-03T14:59:28.136Z,3.59
2017-01-03T15:00:38.861Z,3.63
2017-01-03T15:01:49.578Z,3.55
2017-01-03T15:03:00.329Z,3.58
2017-01-03T15:04:11.069Z,3.61
2017-01-03T15:05:21.836Z,3.52
2017-01-03T15:06:32.564Z,3.52
2017-01-03T15:07:43.310Z,3.58
2017-01-03T15:08:54.047Z,3.52
2017-01-03T15:10:04.774Z,3.5
2017-01-03T15:11:15.473Z,3.5
2017-01-03T15:12:26.208Z,3.63
2017-01-03T15:13:36.914Z,3.46
2017-01-03T15:14:47.650Z,3.49
2017-01-03T15:15:58.374Z,3.49
2017-01-03T15:17:09.092Z,3.52
2017-01-03T15:18:19.841Z,3.46
2017-01-03T15:19:30.588Z,3.59
2017-01-03T15:20:41.363Z,3.66
2017-01-03T15:21:52.086Z,3.55
2017-01-03T15:23:02.822Z,3.59
2017-01-03T15:24:13.550Z,3.53
2017-01-03T15:25:24.275Z,3.5
2017-01-03T15:26:35.009Z,3.48
2017-01-03T15:27:45.741Z,3.5
2017-01-03T15:28:56.462Z,3.53
2017-01-03T15:30:07.185Z,3.48
2017-01-03T15:31:17.918Z,3.58
2017-01-03T15:32:28.647Z,3.61
2017-01-03T15:33:39.388Z,3.52
2017-01-03T15:34:50.143Z,3.58
2017-01-03T15:36:00.888Z,3.5
2017-01-03T15:37:12.005Z,3.64
2017-01-03T15:38:22.722Z,3.58
2017-01-03T15:39:33.443Z,3.63
2017-01-03T15:40:44.564Z,3.55
2017-01-03T15:41:55.289Z,3.63
2017-01-03T15:43:06.053Z,3.61
2017-01-03T15:44:16.774Z,3.67
2017-01-03T15:45:27.494Z,3.61